Date,TemperatureHighF,TemperatureAvgF,TemperatureLowF,DewpointHighF,DewpointAvgF,DewpointLowF,HumidityHigh,HumidityAvg,HumidityLow,PressureMaxIn,PressureMinIn,WindSpeedMaxMPH,WindSpeedAvgMPH,GustSpeedMaxMPH,PrecipitationSumIn
2013-4-1,85.2,72.6,62.3,70.4,63.7,56.1,98,77,40,30.08,29.99,16,4,24,0.00
2013-4-2,89.0,73.5,64.1,68.2,64.6,61.0,99,77,41,30.12,30.01,7,1,11,0.00
2013-4-3,91.8,76.3,63.9,68.7,65.2,61.4,95,72,38,30.09,29.95,5,1,13,0.00
2013-4-4,85.5,71.7,64.9,72.2,67.3,62.5,97,87,62,30.06,29.91,16,2,34,0.00
2013-4-5,71.1,67.7,60.4,68.4,64.5,57.1,97,90,76,30.04,29.83,10,3,13,0.00
2013-4-6,81.6,67.3,57.1,62.1,58.3,55.3,94,75,50,30.11,29.98,8,2,13,0.00
2013-4-7,85.6,71.2,60.9,64.1,61.1,58.2,94,73,41,30.15,30.04,10,2,16,0.00
2013-4-8,88.2,73.5,61.1,64.0,59.9,56.3,94,66,35,30.14,30.04,6,1,11,0.00
2013-4-9,87.4,73.0,60.8,67.2,62.7,56.6,96,73,40,30.16,30.07,10,3,15,0.00
2013-4-10,90.2,73.8,63.4,71.9,67.7,62.2,96,83,49,30.12,29.98,8,2,12,0.00
2013-4-11,87.6,76.1,68.1,76.5,70.9,67.2,98,85,58,30.02,29.89,7,1,11,0.00
2013-4-12,90.9,80.1,72.3,75.4,71.6,66.3,96,78,47,29.96,29.89,6,2,12,0.00
2013-4-13,90.5,80.0,72.5,73.4,70.6,67.6,97,75,50,30.00,29.87,9,2,13,0.00
2013-4-14,92.2,79.0,68.4,75.4,71.2,67.2,98,79,51,29.99,29.87,5,1,10,0.00
2013-4-15,95.3,77.7,67.1,74.7,70.6,65.0,95,81,46,30.08,29.95,18,1,24,0.00
2013-4-16,93.9,78.0,67.4,74.5,70.2,66.5,98,79,47,30.14,30.04,9,1,11,0.00
2013-4-17,88.6,77.7,69.2,70.4,67.9,63.4,94,74,50,30.14,30.01,7,1,10,0.00
2013-4-18,91.5,78.3,67.6,72.6,68.6,65.0,92,74,48,30.07,29.96,7,1,13,0.00
2013-4-19,94.0,77.7,70.2,75.1,70.6,66.4,97,81,41,30.05,29.96,9,2,16,0.00
2013-4-20,90.1,76.9,69.0,76.1,71.6,68.1,98,85,57,30.12,29.98,9,1,14,0.00
2013-4-21,90.8,74.1,65.8,73.3,68.1,64.3,97,83,48,30.13,29.99,7,1,10,0.00
2013-4-22,86.1,73.7,67.6,72.8,68.7,66.0,95,85,56,30.08,29.95,7,1,10,0.00
2013-4-23,88.4,75.2,66.4,69.2,65.3,62.0,95,74,44,30.12,30.00,5,1,9,0.00
2013-4-24,90.7,75.2,62.6,65.3,62.5,57.3,94,68,37,30.15,30.06,6,1,15,0.00
2013-4-25,89.1,76.1,64.9,66.5,61.6,52.2,94,65,30,30.21,30.10,5,1,10,0.00
2013-4-26,88.6,75.1,63.8,65.2,62.7,60.2,89,68,44,30.25,30.15,7,1,13,0.00
2013-4-27,86.3,74.0,64.3,65.5,62.0,58.5,95,69,43,30.23,30.08,11,3,19,0.00
2013-4-28,87.8,74.4,62.9,66.4,62.9,60.6,93,70,43,30.14,29.98,11,4,18,0.00
2013-4-29,89.8,72.6,62.8,70.8,65.7,60.4,94,80,47,30.05,29.95,8,1,29,0.00
2013-4-30,84.2,72.3,66.0,74.5,69.2,65.4,98,91,70,30.01,29.92,13,2,14,0.00